KESC/ESC METAR and TAF weather

Enter ICAO airport designator
Station Type Date Time Source
KESC METAR 2019/04/25 11:56 UTC NOAA

KESC 251156Z AUTO 27003KT 10SM SCT100 08/06 A2975 RMK AO2 SLP099 T00830056 10089 20067 53008


Station Type Date Time Source
KESC Decoded METAR 2019/04/25 11:56 UTC NOAA

Escanaba, MI, United States (KESC) 45-45N 087-02W 187M
Apr 25, 2019 - 07:56 AM EDT / 2019.04.25 1156 UTC
Wind: from the W (270 degrees) at 3 MPH (3 KT):0
Visibility: 10 mile(s):0
Sky conditions: partly cloudy
Temperature: 46.9 F (8.3 C)
Dew Point: 42.1 F (5.6 C)
Relative Humidity: 83%
Pressure (altimeter): 29.75 in. Hg (1007 hPa)
Pressure tendency: 0.02 inches (0.8 hPa) higher than three hours ago
ob: KESC 251156Z AUTO 27003KT 10SM SCT100 08/06 A2975 RMK AO2 SLP099 T00830056 10089 20067 53008
cycle: 12

Station Type Date Time Source
KESC TAF UTC NOAA

Error!

Example: see airport list